createdAt,value
2023-09-29T00:01:06.987Z,0
2023-09-29T00:03:33.097Z,0
2023-09-29T00:05:59.183Z,0
2023-09-29T00:08:25.285Z,0
2023-09-29T00:10:51.372Z,0
2023-09-29T00:13:17.471Z,0
2023-09-29T00:15:43.553Z,0
2023-09-29T00:18:09.662Z,0
2023-09-29T00:20:34.761Z,0
2023-09-29T00:23:00.857Z,0
2023-09-29T00:25:26.957Z,0
2023-09-29T00:27:53.054Z,0
2023-09-29T00:30:19.148Z,0
2023-09-29T00:32:45.247Z,0
2023-09-29T00:35:11.334Z,0
2023-09-29T00:37:37.556Z,0
2023-09-29T00:40:03.521Z,0
2023-09-29T00:42:29.621Z,0
2023-09-29T00:44:55.715Z,0
2023-09-29T00:47:21.812Z,0
2023-09-29T00:49:47.913Z,0
2023-09-29T00:52:13.032Z,0
2023-09-29T00:54:39.131Z,0
2023-09-29T00:57:05.223Z,0
2023-09-29T00:59:31.306Z,0
2023-09-29T01:01:57.396Z,0
2023-09-29T01:04:23.495Z,0
2023-09-29T01:06:49.604Z,0
2023-09-29T01:09:15.680Z,0
2023-09-29T01:11:41.798Z,0
2023-09-29T01:14:07.888Z,0
2023-09-29T01:16:33.988Z,0
2023-09-29T01:19:00.084Z,0
2023-09-29T01:21:26.261Z,0
2023-09-29T01:23:51.283Z,0
2023-09-29T01:26:17.378Z,0
2023-09-29T01:28:43.489Z,0
2023-09-29T01:31:09.569Z,0
2023-09-29T01:33:35.663Z,0
2023-09-29T01:36:01.761Z,0
2023-09-29T01:38:27.831Z,0
2023-09-29T01:40:54.005Z,0
2023-09-29T01:43:20.061Z,0
2023-09-29T01:45:46.143Z,0
2023-09-29T01:48:12.226Z,0
2023-09-29T01:50:38.324Z,0
2023-09-29T01:53:04.497Z,0
2023-09-29T01:55:29.543Z,0
2023-09-29T01:57:55.637Z,0
2023-09-29T02:00:21.713Z,0
2023-09-29T02:02:47.818Z,0
2023-09-29T02:05:13.918Z,0
2023-09-29T02:07:40.001Z,0
2023-09-29T02:10:06.093Z,0
2023-09-29T02:12:32.336Z,0
2023-09-29T02:14:58.415Z,0
2023-09-29T02:17:24.559Z,0
2023-09-29T02:19:50.486Z,0
2023-09-29T02:22:16.565Z,0
2023-09-29T02:24:42.670Z,0
2023-09-29T02:27:07.787Z,0
2023-09-29T02:29:33.892Z,0
2023-09-29T02:31:59.963Z,0
2023-09-29T02:34:26.056Z,0
2023-09-29T02:36:52.136Z,0
2023-09-29T02:39:18.234Z,0
2023-09-29T02:41:44.351Z,0
2023-09-29T02:44:10.445Z,0
2023-09-29T02:46:36.518Z,0
2023-09-29T02:49:02.614Z,0
2023-09-29T02:51:28.715Z,0
2023-09-29T02:53:54.800Z,0
2023-09-29T02:56:21.027Z,0
2023-09-29T02:58:46.069Z,0
2023-09-29T03:01:12.122Z,0
2023-09-29T03:03:38.192Z,0
2023-09-29T03:06:04.307Z,0
2023-09-29T03:08:30.386Z,0
2023-09-29T03:10:56.480Z,0
2023-09-29T03:13:22.589Z,0
2023-09-29T03:15:48.678Z,0
2023-09-29T03:18:14.767Z,0
2023-09-29T03:20:40.870Z,0
2023-09-29T03:23:06.964Z,0
2023-09-29T03:25:33.063Z,0
2023-09-29T03:27:59.151Z,0
2023-09-29T03:30:24.263Z,0
2023-09-29T03:32:50.363Z,0
2023-09-29T03:35:16.454Z,0
2023-09-29T03:37:42.532Z,0
2023-09-29T03:40:08.640Z,0
2023-09-29T03:42:34.746Z,0
2023-09-29T03:45:00.829Z,0
2023-09-29T03:47:26.918Z,0
2023-09-29T03:49:53.009Z,0
2023-09-29T03:52:19.120Z,0
2023-09-29T03:54:45.209Z,0
2023-09-29T03:57:11.297Z,0
2023-09-29T03:59:37.389Z,0
2023-09-29T04:02:02.528Z,0
2023-09-29T04:04:28.604Z,0
2023-09-29T04:06:54.713Z,0
2023-09-29T04:09:20.809Z,0
2023-09-29T04:11:46.882Z,0
2023-09-29T04:14:12.976Z,0
2023-09-29T04:16:39.082Z,0
2023-09-29T04:19:05.186Z,0
2023-09-29T04:21:31.264Z,0
2023-09-29T04:23:57.362Z,0
2023-09-29T04:26:23.467Z,0
2023-09-29T04:28:49.543Z,0
2023-09-29T04:31:15.648Z,0
2023-09-29T04:33:40.763Z,0
2023-09-29T04:36:06.867Z,0
2023-09-29T04:38:32.950Z,0
2023-09-29T04:40:59.054Z,0
2023-09-29T04:43:25.145Z,0
2023-09-29T04:45:51.228Z,0
2023-09-29T04:48:17.332Z,0
2023-09-29T04:50:43.461Z,0
2023-09-29T04:53:09.532Z,0
2023-09-29T04:55:35.610Z,0
2023-09-29T04:58:01.712Z,0
2023-09-29T05:00:27.799Z,0
2023-09-29T05:02:53.905Z,0
2023-09-29T05:05:19.021Z,0
2023-09-29T05:07:45.171Z,0
2023-09-29T05:10:11.201Z,5
2023-09-29T05:12:37.311Z,5
2023-09-29T05:15:03.401Z,5
2023-09-29T05:17:29.476Z,11
2023-09-29T05:19:55.576Z,11
2023-09-29T05:22:21.683Z,16
2023-09-29T05:24:47.769Z,16
2023-09-29T05:27:13.863Z,22
2023-09-29T05:29:39.965Z,33
2023-09-29T05:32:06.047Z,33
2023-09-29T05:34:32.160Z,39
2023-09-29T05:36:57.268Z,50
2023-09-29T05:39:23.368Z,56
2023-09-29T05:41:49.463Z,56
2023-09-29T05:44:15.549Z,67
2023-09-29T05:46:41.649Z,73
2023-09-29T05:49:07.746Z,78
2023-09-29T05:51:32.852Z,90
2023-09-29T05:53:58.953Z,95
2023-09-29T05:56:25.174Z,106
2023-09-29T05:58:51.338Z,106
2023-09-29T06:01:17.392Z,123
2023-09-29T06:03:43.372Z,123
2023-09-29T06:06:09.638Z,129
2023-09-29T06:08:35.858Z,129
2023-09-29T06:11:01.677Z,140
2023-09-29T06:13:27.925Z,151
2023-09-29T06:15:53.792Z,163
2023-09-29T06:18:20.227Z,168
2023-09-29T06:20:46.236Z,185
2023-09-29T06:23:11.425Z,208
2023-09-29T06:25:37.523Z,225
2023-09-29T06:28:03.494Z,236
2023-09-29T06:30:29.588Z,247
2023-09-29T06:32:55.568Z,247
2023-09-29T06:35:21.701Z,241
2023-09-29T06:37:47.988Z,225
2023-09-29T06:40:14.163Z,213
2023-09-29T06:42:40.195Z,208
2023-09-29T06:45:06.122Z,208
2023-09-29T06:47:32.059Z,219
2023-09-29T06:49:58.474Z,253
2023-09-29T06:52:24.503Z,271
2023-09-29T06:54:49.368Z,241
2023-09-29T06:57:15.691Z,230
2023-09-29T06:59:41.901Z,247
2023-09-29T07:02:07.768Z,271
2023-09-29T07:04:34.083Z,287
2023-09-29T07:07:00.124Z,293
2023-09-29T07:09:26.182Z,299
2023-09-29T07:11:52.365Z,327
2023-09-29T07:14:18.436Z,349
2023-09-29T07:16:44.657Z,344
2023-09-29T07:19:10.607Z,332
2023-09-29T07:21:36.598Z,361
2023-09-29T07:24:02.595Z,366
2023-09-29T07:26:28.040Z,400
2023-09-29T07:28:53.715Z,434
2023-09-29T07:31:19.827Z,411
2023-09-29T07:33:46.049Z,361
2023-09-29T07:36:12.049Z,338
2023-09-29T07:38:38.137Z,344
2023-09-29T07:41:04.279Z,400
2023-09-29T07:43:30.286Z,496
2023-09-29T07:45:56.500Z,547
2023-09-29T07:48:22.467Z,587
2023-09-29T07:50:48.709Z,615
2023-09-29T07:53:14.681Z,558
2023-09-29T07:55:40.789Z,479
2023-09-29T07:58:05.879Z,434
2023-09-29T08:00:31.944Z,417
2023-09-29T08:02:58.053Z,372
2023-09-29T08:05:24.291Z,344
2023-09-29T08:07:50.251Z,361
2023-09-29T08:10:16.332Z,383
2023-09-29T08:12:42.437Z,383
2023-09-29T08:15:08.531Z,383
2023-09-29T08:17:34.629Z,349
2023-09-29T08:20:00.733Z,332
2023-09-29T08:22:26.817Z,338
2023-09-29T08:24:53.035Z,327
2023-09-29T08:27:19.005Z,293
2023-09-29T08:29:44.377Z,259
2023-09-29T08:32:10.207Z,253
2023-09-29T08:34:36.339Z,259
2023-09-29T08:37:02.400Z,259
2023-09-29T08:39:28.807Z,299
2023-09-29T08:41:54.858Z,316
2023-09-29T08:44:20.813Z,316
2023-09-29T08:46:46.767Z,287
2023-09-29T08:49:13.013Z,304
2023-09-29T08:51:38.992Z,287
2023-09-29T08:54:05.060Z,321
2023-09-29T08:56:31.162Z,338
2023-09-29T08:58:57.282Z,304
2023-09-29T09:01:22.510Z,276
2023-09-29T09:03:48.741Z,276
2023-09-29T09:06:14.553Z,327
2023-09-29T09:08:40.846Z,338
2023-09-29T09:11:07.051Z,299
2023-09-29T09:13:32.979Z,271
2023-09-29T09:15:59.152Z,282
2023-09-29T09:18:25.296Z,271
2023-09-29T09:20:51.330Z,253
2023-09-29T09:23:17.417Z,253
2023-09-29T09:25:43.589Z,253
2023-09-29T09:28:09.622Z,241
2023-09-29T09:30:35.589Z,253
2023-09-29T09:33:00.630Z,259
2023-09-29T09:35:26.738Z,259
2023-09-29T09:37:52.910Z,265
2023-09-29T09:40:18.969Z,276
2023-09-29T09:42:44.987Z,282
2023-09-29T09:45:11.080Z,287
2023-09-29T09:47:37.172Z,316
2023-09-29T09:50:03.267Z,332
2023-09-29T09:52:29.377Z,344
2023-09-29T09:54:55.541Z,349
2023-09-29T09:57:21.652Z,349
2023-09-29T09:59:47.665Z,361
2023-09-29T10:02:13.763Z,389
2023-09-29T10:04:38.936Z,422
2023-09-29T10:07:04.952Z,479
2023-09-29T10:09:31.039Z,519
2023-09-29T10:11:57.132Z,525
2023-09-29T10:14:23.237Z,525
2023-09-29T10:16:49.325Z,501
2023-09-29T10:19:15.436Z,507
2023-09-29T10:21:41.562Z,536
2023-09-29T10:24:07.767Z,564
2023-09-29T10:26:33.719Z,553
2023-09-29T10:28:59.811Z,542
2023-09-29T10:31:25.956Z,598
2023-09-29T10:33:52.117Z,654
2023-09-29T10:36:17.089Z,677
2023-09-29T10:38:43.189Z,688
2023-09-29T10:41:09.282Z,654
2023-09-29T10:43:35.519Z,592
2023-09-29T10:46:01.606Z,536
2023-09-29T10:48:27.743Z,479
2023-09-29T10:50:53.779Z,451
2023-09-29T10:53:19.793Z,434
2023-09-29T10:55:45.889Z,428
2023-09-29T10:58:11.942Z,501
2023-09-29T11:00:38.055Z,530
2023-09-29T11:03:04.143Z,519
2023-09-29T11:05:30.237Z,536
2023-09-29T11:07:55.357Z,513
2023-09-29T11:10:21.441Z,445
2023-09-29T11:12:47.528Z,372
2023-09-29T11:15:13.640Z,355
2023-09-29T11:17:39.843Z,344
2023-09-29T11:20:05.887Z,321
2023-09-29T11:22:31.972Z,321
2023-09-29T11:24:58.139Z,316
2023-09-29T11:27:24.096Z,321
2023-09-29T11:29:50.197Z,321
2023-09-29T11:32:16.286Z,321
2023-09-29T11:34:42.376Z,327
2023-09-29T11:37:08.538Z,321
2023-09-29T11:39:33.586Z,327
2023-09-29T11:41:59.676Z,321
2023-09-29T11:44:25.758Z,321
2023-09-29T11:46:51.873Z,316
2023-09-29T11:49:17.981Z,310
2023-09-29T11:51:44.185Z,310
2023-09-29T11:54:10.273Z,304
2023-09-29T11:56:36.280Z,304
2023-09-29T11:59:02.337Z,304
2023-09-29T12:01:28.486Z,304
2023-09-29T12:03:54.542Z,304
2023-09-29T12:06:20.685Z,310
2023-09-29T12:08:46.730Z,310
2023-09-29T12:11:12.007Z,316
2023-09-29T12:13:37.977Z,321
2023-09-29T12:16:04.015Z,327
2023-09-29T12:18:30.109Z,332
2023-09-29T12:20:56.210Z,332
2023-09-29T12:23:22.350Z,338
2023-09-29T12:25:48.403Z,349
2023-09-29T12:28:14.505Z,361
2023-09-29T12:30:40.583Z,361
2023-09-29T12:33:06.694Z,372
2023-09-29T12:35:32.788Z,361
2023-09-29T12:37:58.867Z,344
2023-09-29T12:42:51.058Z,366
2023-09-29T12:45:16.180Z,377
2023-09-29T12:47:42.347Z,422
2023-09-29T12:50:08.387Z,445
2023-09-29T12:52:34.469Z,462
2023-09-29T12:55:00.553Z,484
2023-09-29T12:57:26.649Z,428
2023-09-29T12:59:52.749Z,422
2023-09-29T13:02:18.825Z,462
2023-09-29T13:04:44.937Z,377
2023-09-29T13:07:11.031Z,355
2023-09-29T13:09:37.222Z,366
2023-09-29T13:12:03.210Z,332
2023-09-29T13:14:29.315Z,377
2023-09-29T13:16:54.420Z,389
2023-09-29T13:19:20.501Z,496
2023-09-29T13:21:46.613Z,547
2023-09-29T13:24:12.698Z,536
2023-09-29T13:26:38.788Z,648
2023-09-29T13:29:04.897Z,738
2023-09-29T13:31:31.032Z,824
2023-09-29T13:33:57.331Z,829
2023-09-29T13:36:23.405Z,761
2023-09-29T13:38:49.502Z,716
2023-09-29T13:41:15.479Z,705
2023-09-29T13:43:41.522Z,558
2023-09-29T13:46:07.642Z,473
2023-09-29T13:48:32.871Z,389
2023-09-29T13:50:58.835Z,377
2023-09-29T13:53:24.856Z,439
2023-09-29T13:55:51.146Z,439
2023-09-29T13:58:17.076Z,558
2023-09-29T14:00:42.164Z,654
2023-09-29T14:03:08.263Z,598
2023-09-29T14:05:34.430Z,501
2023-09-29T14:08:00.690Z,451
2023-09-29T14:10:26.637Z,462
2023-09-29T14:12:52.770Z,581
2023-09-29T14:15:18.832Z,677
2023-09-29T14:17:44.902Z,796
2023-09-29T14:20:10.958Z,1247
2023-09-29T14:22:37.214Z,2224
2023-09-29T14:25:03.141Z,547
2023-09-29T14:27:29.340Z,439
2023-09-29T14:29:55.500Z,587
2023-09-29T14:32:20.605Z,1473
2023-09-29T14:34:46.701Z,722
2023-09-29T14:37:12.860Z,501
2023-09-29T14:39:38.852Z,366
2023-09-29T14:42:04.873Z,332
2023-09-29T14:44:31.008Z,417
2023-09-29T14:46:56.978Z,784
2023-09-29T14:49:23.159Z,422
2023-09-29T14:51:49.164Z,400
2023-09-29T14:54:15.256Z,293
2023-09-29T14:56:41.370Z,247
2023-09-29T14:59:07.457Z,185
2023-09-29T15:01:33.560Z,185
2023-09-29T15:03:58.668Z,196
2023-09-29T15:06:24.841Z,225
2023-09-29T15:08:50.912Z,219
2023-09-29T15:11:16.994Z,191
2023-09-29T15:13:43.043Z,208
2023-09-29T15:16:09.129Z,219
2023-09-29T15:18:35.312Z,225
2023-09-29T15:21:01.350Z,230
2023-09-29T15:23:27.542Z,219
2023-09-29T15:25:53.513Z,236
2023-09-29T15:28:19.624Z,219
2023-09-29T15:30:45.760Z,196
2023-09-29T15:33:11.822Z,202
2023-09-29T15:35:36.908Z,230
2023-09-29T15:38:03.077Z,282
2023-09-29T15:40:29.101Z,327
2023-09-29T15:42:55.202Z,372
2023-09-29T15:45:21.371Z,389
2023-09-29T15:47:47.451Z,361
2023-09-29T15:50:13.490Z,327
2023-09-29T15:52:39.570Z,265
2023-09-29T15:55:05.670Z,202
2023-09-29T15:57:31.763Z,185
2023-09-29T15:59:57.862Z,174
2023-09-29T16:02:23.960Z,174
2023-09-29T16:04:50.063Z,163
2023-09-29T16:07:15.251Z,146
2023-09-29T16:09:41.253Z,146
2023-09-29T16:12:07.435Z,163
2023-09-29T16:14:33.469Z,157
2023-09-29T16:16:59.927Z,157
2023-09-29T16:19:25.626Z,151
2023-09-29T16:21:51.725Z,146
2023-09-29T16:24:17.819Z,123
2023-09-29T16:26:43.913Z,90
2023-09-29T16:29:10.003Z,84
2023-09-29T16:31:36.108Z,73
2023-09-29T16:34:02.191Z,61
2023-09-29T16:36:28.281Z,45
2023-09-29T16:38:53.396Z,39
2023-09-29T16:41:19.489Z,33
2023-09-29T16:43:45.589Z,28
2023-09-29T16:46:11.684Z,22
2023-09-29T16:48:37.836Z,22
2023-09-29T16:51:03.878Z,16
2023-09-29T16:53:29.963Z,16
2023-09-29T16:55:56.087Z,16
2023-09-29T16:58:22.187Z,11
2023-09-29T17:00:48.239Z,5
2023-09-29T17:03:14.343Z,5
2023-09-29T17:05:40.483Z,5
2023-09-29T17:10:32.632Z,5
2023-09-29T17:12:57.752Z,5
2023-09-29T17:15:23.848Z,0
2023-09-29T17:17:49.912Z,0
2023-09-29T17:20:16.038Z,0
2023-09-29T17:22:42.123Z,0
2023-09-29T17:25:08.208Z,0
2023-09-29T17:27:34.302Z,0
2023-09-29T17:30:00.509Z,0
2023-09-29T17:32:26.488Z,0
2023-09-29T17:34:52.677Z,0
2023-09-29T17:37:18.705Z,0
2023-09-29T17:39:44.784Z,0
2023-09-29T17:42:10.930Z,0
2023-09-29T17:44:36.307Z,0
2023-09-29T17:47:02.126Z,0
2023-09-29T17:49:28.201Z,0
2023-09-29T17:51:54.391Z,0
2023-09-29T17:54:20.402Z,0
2023-09-29T17:59:12.535Z,0
2023-09-29T18:01:38.634Z,0
2023-09-29T18:04:04.763Z,0
2023-09-29T18:06:30.880Z,0
2023-09-29T18:08:56.922Z,0
2023-09-29T18:11:23.036Z,0
2023-09-29T18:13:50.078Z,0
2023-09-29T18:16:15.208Z,0
2023-09-29T18:18:40.361Z,0
2023-09-29T18:21:06.423Z,0
2023-09-29T18:23:32.523Z,0
2023-09-29T18:25:58.624Z,0
2023-09-29T18:28:24.788Z,0
2023-09-29T18:30:50.804Z,0
2023-09-29T18:33:16.916Z,0
2023-09-29T18:35:43.032Z,0
2023-09-29T18:38:09.122Z,0
2023-09-29T18:40:35.204Z,0
2023-09-29T18:43:01.318Z,0
2023-09-29T18:45:27.457Z,0
2023-09-29T18:47:53.547Z,0
2023-09-29T18:50:18.566Z,0
2023-09-29T18:52:44.788Z,0
2023-09-29T18:57:36.971Z,0
2023-09-29T19:00:03.266Z,0
2023-09-29T19:02:29.030Z,0
2023-09-29T19:04:55.125Z,0
2023-09-29T19:07:21.371Z,0
2023-09-29T19:09:47.341Z,0
2023-09-29T19:12:13.540Z,0
2023-09-29T19:14:39.573Z,0
2023-09-29T19:17:05.643Z,0
2023-09-29T19:19:31.718Z,0
2023-09-29T19:21:56.894Z,0
2023-09-29T19:24:23.115Z,0
2023-09-29T19:26:49.203Z,0
2023-09-29T19:29:15.237Z,0
2023-09-29T19:31:41.214Z,0
2023-09-29T19:34:07.282Z,0
2023-09-29T19:36:33.390Z,0
2023-09-29T19:38:59.482Z,0
2023-09-29T19:41:25.557Z,0
2023-09-29T19:43:51.710Z,0
2023-09-29T19:46:17.787Z,0
2023-09-29T19:48:43.855Z,0
2023-09-29T19:51:09.936Z,0
2023-09-29T19:53:35.102Z,0
2023-09-29T19:56:01.226Z,0
2023-09-29T19:58:27.244Z,0
2023-09-29T20:00:53.427Z,0
2023-09-29T20:03:19.448Z,0
2023-09-29T20:05:45.541Z,0
2023-09-29T20:08:11.631Z,0
2023-09-29T20:10:37.717Z,0
2023-09-29T20:13:03.827Z,0
2023-09-29T20:15:29.981Z,0
2023-09-29T20:17:56.009Z,0
2023-09-29T20:20:22.098Z,0
2023-09-29T20:22:48.208Z,0
2023-09-29T20:25:13.307Z,0
2023-09-29T20:27:39.395Z,0
2023-09-29T20:30:05.510Z,0
2023-09-29T20:32:31.597Z,0
2023-09-29T20:34:57.687Z,0
2023-09-29T20:37:23.795Z,0
2023-09-29T20:39:49.897Z,0
2023-09-29T20:42:15.964Z,0
2023-09-29T20:44:42.080Z,0
2023-09-29T20:47:08.227Z,0
2023-09-29T20:49:34.265Z,0
2023-09-29T20:52:00.402Z,0
2023-09-29T20:54:26.439Z,0
2023-09-29T20:56:51.561Z,0
2023-09-29T20:59:17.660Z,0
2023-09-29T21:01:43.791Z,0
2023-09-29T21:04:09.856Z,0
2023-09-29T21:06:35.940Z,0
2023-09-29T21:09:03.605Z,0
2023-09-29T21:11:28.117Z,0
2023-09-29T21:13:54.235Z,0
2023-09-29T21:16:20.316Z,0
2023-09-29T21:18:46.395Z,0
2023-09-29T21:21:12.497Z,0
2023-09-29T21:23:38.639Z,0
2023-09-29T21:26:04.736Z,0
2023-09-29T21:28:29.893Z,0
2023-09-29T21:30:55.891Z,0
2023-09-29T21:33:21.992Z,0
2023-09-29T21:35:48.071Z,0
2023-09-29T21:38:14.173Z,0
2023-09-29T21:40:40.302Z,0
2023-09-29T21:43:06.416Z,0
2023-09-29T21:45:32.446Z,0
2023-09-29T21:47:58.568Z,0
2023-09-29T21:50:24.656Z,0
2023-09-29T21:52:50.719Z,0
2023-09-29T21:55:16.838Z,0
2023-09-29T21:57:42.928Z,0
2023-09-29T22:00:08.033Z,0
2023-09-29T22:02:34.122Z,0
2023-09-29T22:05:00.229Z,0
2023-09-29T22:07:26.333Z,0
2023-09-29T22:09:51.446Z,0
2023-09-29T22:12:17.520Z,0
2023-09-29T22:14:43.620Z,0
2023-09-29T22:17:09.715Z,0
2023-09-29T22:19:35.819Z,0
2023-09-29T22:22:02.119Z,0
2023-09-29T22:24:28.010Z,0
2023-09-29T22:26:54.178Z,0
2023-09-29T22:29:20.205Z,0
2023-09-29T22:31:46.298Z,0
2023-09-29T22:34:12.382Z,0
2023-09-29T22:36:38.509Z,0
2023-09-29T22:39:04.592Z,0
2023-09-29T22:41:29.702Z,0
2023-09-29T22:43:55.791Z,0
2023-09-29T22:46:21.880Z,0
2023-09-29T22:48:47.981Z,0
2023-09-29T22:51:14.084Z,0
2023-09-29T22:53:40.180Z,0
2023-09-29T22:56:06.276Z,0
2023-09-29T22:58:32.382Z,0
2023-09-29T23:00:58.471Z,0
2023-09-29T23:03:24.558Z,0
2023-09-29T23:05:50.659Z,0
2023-09-29T23:08:16.745Z,0
2023-09-29T23:10:42.844Z,0
2023-09-29T23:13:07.950Z,0
2023-09-29T23:15:34.063Z,0
2023-09-29T23:18:00.222Z,0
2023-09-29T23:20:26.229Z,0
2023-09-29T23:22:52.367Z,0
2023-09-29T23:25:18.417Z,0
2023-09-29T23:27:44.511Z,0
2023-09-29T23:30:10.623Z,0
2023-09-29T23:32:36.703Z,0
2023-09-29T23:35:02.828Z,0
2023-09-29T23:37:28.964Z,0
2023-09-29T23:39:55.121Z,0
2023-09-29T23:42:21.094Z,0
2023-09-29T23:44:46.198Z,0
2023-09-29T23:47:12.292Z,0
2023-09-29T23:49:38.394Z,0
2023-09-29T23:52:04.485Z,0
2023-09-29T23:54:30.597Z,0
2023-09-29T23:59:22.797Z,0
